createdAt,value
2018-07-15T00:00:32.916Z,95.40
2018-07-15T00:03:02.736Z,95.30
2018-07-15T00:08:01.590Z,95.80
2018-07-15T00:10:31.420Z,95.40
2018-07-15T00:13:01.179Z,95.60
2018-07-15T00:15:30.691Z,95.50
2018-07-15T00:18:00.362Z,95.90
2018-07-15T00:25:28.901Z,96.00
2018-07-15T00:27:59.960Z,96.30
2018-07-15T00:32:58.309Z,96.20
2018-07-15T00:37:57.525Z,95.80
2018-07-15T00:40:27.234Z,95.80
2018-07-15T00:42:57.096Z,96.00
2018-07-15T00:45:26.365Z,96.20
2018-07-15T00:55:23.572Z,96.10
2018-07-15T00:57:53.373Z,96.10
2018-07-15T01:05:26.460Z,96.00
2018-07-15T01:15:23.253Z,96.20
2018-07-15T01:22:52.110Z,96.30
2018-07-15T01:27:50.776Z,96.50
2018-07-15T01:30:20.260Z,96.60
2018-07-15T01:40:16.699Z,96.80
2018-07-15T01:45:15.482Z,96.70
2018-07-15T01:57:40.750Z,97.90
2018-07-15T02:02:40.946Z,97.60
2018-07-15T02:07:39.601Z,97.40
2018-07-15T02:12:39.190Z,97.30
2018-07-15T02:15:09.080Z,97.40
2018-07-15T02:17:38.661Z,97.30
2018-07-15T02:20:08.598Z,97.20
2018-07-15T02:25:07.435Z,97.70
2018-07-15T02:47:32.287Z,98.40
2018-07-15T02:54:59.974Z,98.50
2018-07-15T03:02:27.285Z,98.70
2018-07-15T03:12:25.233Z,99.30
2018-07-15T03:19:53.865Z,99.20
2018-07-15T03:32:19.225Z,99.30
2018-07-15T03:34:48.942Z,99.70
2018-07-15T03:37:18.717Z,99.80
2018-07-15T03:39:48.541Z,99.80
2018-07-15T03:49:44.604Z,99.80
2018-07-15T04:04:39.006Z,99.90
2018-07-15T04:07:09.418Z,99.60
2018-07-15T04:17:07.541Z,99.90
2018-07-15T04:22:06.140Z,99.90
2018-07-15T04:37:00.807Z,99.40
2018-07-15T04:39:30.706Z,99.80
2018-07-15T04:46:59.294Z,99.30
2018-07-15T04:49:29.360Z,99.70
2018-07-15T04:51:58.805Z,99.20
2018-07-15T04:54:28.912Z,98.70
2018-07-15T04:56:58.269Z,98.90
2018-07-15T05:01:57.896Z,98.30
2018-07-15T05:06:57.343Z,98.60
2018-07-15T05:09:27.524Z,99.10
2018-07-15T05:11:57.191Z,99.20
2018-07-15T05:24:23.028Z,99.70
2018-07-15T05:31:51.146Z,99.90
2018-07-15T05:34:20.906Z,98.80
2018-07-15T05:36:50.269Z,99.20
2018-07-15T05:41:49.766Z,98.80
2018-07-15T05:44:19.482Z,99.30
2018-07-15T05:46:49.023Z,98.70
2018-07-15T05:54:17.880Z,97.70
2018-07-15T05:59:16.183Z,97.20
2018-07-15T06:11:43.523Z,96.00
2018-07-15T06:14:13.395Z,95.90
2018-07-15T06:16:42.828Z,95.70
2018-07-15T06:24:11.236Z,96.00
2018-07-15T06:34:07.332Z,96.10
2018-07-15T06:36:37.221Z,95.90
2018-07-15T06:39:07.860Z,95.40
2018-07-15T06:41:38.112Z,95.80
2018-07-15T07:14:01.326Z,93.20
2018-07-15T07:16:31.123Z,94.10
2018-07-15T07:23:59.340Z,93.10
2018-07-15T07:26:28.897Z,93.60
2018-07-15T07:28:58.635Z,92.70
2018-07-15T07:53:51.697Z,91.50
2018-07-15T07:56:20.937Z,91.10
2018-07-15T07:58:51.288Z,90.40
2018-07-15T08:01:21.308Z,91.60
2018-07-15T08:03:51.104Z,90.70
2018-07-15T08:06:20.825Z,90.60
2018-07-15T08:08:50.567Z,90.70
2018-07-15T08:16:18.718Z,89.70
2018-07-15T08:26:16.592Z,87.50
2018-07-15T08:38:45.235Z,89.90
2018-07-15T08:58:39.005Z,79.30
2018-07-15T09:01:09.060Z,79.30
2018-07-15T09:08:37.448Z,73.60
2018-07-15T09:26:02.008Z,74.30
2018-07-15T09:31:01.575Z,74.10
2018-07-15T09:33:31.458Z,73.90
2018-07-15T09:36:01.281Z,74.80
2018-07-15T09:43:29.281Z,74.50
2018-07-15T09:45:59.086Z,74.70
2018-07-15T09:48:28.861Z,76.10
2018-07-15T09:50:58.561Z,72.40
2018-07-15T09:55:57.204Z,70.10
2018-07-15T09:58:27.677Z,67.10
2018-07-15T10:08:26.890Z,71.30
2018-07-15T10:10:56.883Z,74.30
2018-07-15T10:13:26.458Z,74.50
2018-07-15T10:25:53.158Z,67.50
2018-07-15T10:28:22.761Z,64.00
2018-07-15T10:40:50.245Z,62.90
2018-07-15T10:45:49.202Z,67.30
2018-07-15T10:53:19.380Z,65.50
2018-07-15T11:05:47.660Z,58.90
2018-07-15T11:08:17.250Z,58.20
2018-07-15T11:20:42.846Z,58.60
2018-07-15T11:23:12.455Z,60.50
2018-07-15T11:30:40.635Z,61.20
2018-07-15T11:40:38.088Z,61.50
2018-07-15T11:45:37.352Z,58.70
2018-07-15T11:58:03.575Z,58.90
2018-07-15T12:00:33.044Z,59.30
2018-07-15T12:17:57.622Z,55.30
2018-07-15T12:35:21.246Z,54.80
2018-07-15T12:37:50.729Z,55.80
2018-07-15T12:47:46.795Z,53.10
2018-07-15T12:52:45.357Z,52.00
2018-07-15T12:55:14.720Z,51.00
2018-07-15T13:00:14.132Z,50.50
2018-07-15T13:07:50.258Z,53.20
2018-07-15T13:12:49.308Z,48.70
2018-07-15T13:15:19.273Z,51.20
2018-07-15T13:17:49.580Z,50.00
2018-07-15T13:20:19.301Z,51.20
2018-07-15T13:22:48.953Z,50.20
2018-07-15T13:25:18.775Z,48.30
2018-07-15T13:30:17.599Z,48.50
2018-07-15T13:32:48.075Z,46.10
2018-07-15T13:35:17.657Z,47.40
2018-07-15T13:37:47.122Z,47.40
2018-07-15T13:40:17.018Z,47.90
2018-07-15T13:42:46.611Z,47.60
2018-07-15T13:47:45.030Z,45.80
2018-07-15T13:50:14.874Z,45.10
2018-07-15T13:52:44.121Z,45.60
2018-07-15T13:57:43.261Z,45.10
2018-07-15T14:00:12.935Z,43.10
2018-07-15T14:02:42.439Z,43.50
2018-07-15T14:07:41.484Z,45.00
2018-07-15T14:10:10.956Z,42.70
2018-07-15T14:12:40.691Z,42.80
2018-07-15T14:20:09.116Z,43.60
2018-07-15T14:22:38.564Z,44.80
2018-07-15T14:30:07.636Z,43.90
2018-07-15T14:35:08.438Z,44.60
2018-07-15T14:40:07.265Z,42.20
2018-07-15T14:42:36.397Z,43.50
2018-07-15T14:47:35.085Z,42.10
2018-07-15T14:50:04.707Z,44.60
2018-07-15T14:55:03.465Z,40.80
2018-07-15T14:57:33.599Z,41.20
2018-07-15T15:00:03.055Z,43.00
2018-07-15T15:05:02.496Z,42.70
2018-07-15T15:10:02.020Z,41.90
2018-07-15T15:12:31.195Z,40.70
2018-07-15T15:15:03.044Z,40.00
2018-07-15T15:20:01.205Z,42.70
2018-07-15T15:22:30.859Z,40.00
2018-07-15T15:27:30.737Z,39.80
2018-07-15T15:30:00.863Z,42.00
2018-07-15T15:37:28.710Z,41.20
2018-07-15T15:44:57.512Z,42.00
2018-07-15T15:47:27.251Z,41.10
2018-07-15T15:49:56.610Z,41.10
2018-07-15T15:54:55.446Z,43.20
2018-07-15T15:57:24.672Z,43.50
2018-07-15T16:04:52.305Z,44.20
2018-07-15T16:09:50.590Z,44.10
2018-07-15T16:14:48.612Z,44.10
2018-07-15T16:19:46.494Z,45.10
2018-07-15T16:27:14.594Z,45.20
2018-07-15T16:32:13.036Z,47.30
2018-07-15T16:34:42.137Z,45.20
2018-07-15T16:39:42.021Z,45.40
2018-07-15T16:42:11.564Z,45.60
2018-07-15T16:44:41.039Z,45.00
2018-07-15T16:47:10.467Z,45.40
2018-07-15T16:52:08.609Z,46.00
2018-07-15T16:57:06.764Z,47.00
2018-07-15T17:02:05.249Z,45.80
2018-07-15T17:04:34.704Z,45.80
2018-07-15T17:09:32.852Z,46.90
2018-07-15T17:14:31.021Z,46.40
2018-07-15T17:17:00.243Z,46.20
2018-07-15T17:21:58.412Z,47.30
2018-07-15T17:29:25.060Z,48.20
2018-07-15T17:31:54.274Z,49.10
2018-07-15T17:39:20.709Z,48.20
2018-07-15T17:44:18.729Z,49.30
2018-07-15T17:49:16.848Z,50.60
2018-07-15T17:54:15.277Z,50.90
2018-07-15T18:06:40.920Z,51.20
2018-07-15T18:11:39.662Z,51.60
2018-07-15T18:19:06.654Z,51.10
2018-07-15T18:24:04.457Z,51.90
2018-07-15T18:29:03.419Z,52.50
2018-07-15T18:36:30.814Z,55.70
2018-07-15T18:41:29.434Z,55.30
2018-07-15T18:43:59.020Z,55.50
2018-07-15T18:46:28.415Z,55.40
2018-07-15T18:51:26.784Z,58.90
2018-07-15T18:56:24.828Z,57.50
2018-07-15T19:03:52.733Z,56.20
2018-07-15T19:08:51.164Z,55.60
2018-07-15T19:11:20.721Z,57.50
2018-07-15T19:18:49.221Z,58.10
2018-07-15T19:21:18.422Z,58.60
2018-07-15T19:26:17.297Z,59.50
2018-07-15T19:28:47.753Z,61.30
2018-07-15T19:31:17.582Z,63.00
2018-07-15T19:33:47.633Z,65.10
2018-07-15T19:36:16.937Z,66.40
2018-07-15T19:41:15.873Z,64.50
2018-07-15T19:43:45.849Z,64.30
2018-07-15T20:11:03.430Z,72.30
2018-07-15T20:13:33.105Z,72.70
2018-07-15T20:16:03.634Z,68.80
2018-07-15T20:18:33.417Z,72.90
2018-07-15T20:21:02.888Z,70.00
2018-07-15T20:26:01.482Z,74.00
2018-07-15T20:28:31.503Z,75.10
2018-07-15T20:31:01.667Z,76.40
2018-07-15T20:38:28.518Z,77.20
2018-07-15T20:45:57.641Z,79.80
2018-07-15T20:48:27.263Z,77.90
2018-07-15T20:53:26.221Z,80.10
2018-07-15T21:08:25.040Z,82.40
2018-07-15T21:15:52.675Z,82.20
2018-07-15T21:20:51.810Z,81.70
2018-07-15T21:23:21.352Z,80.10
2018-07-15T21:25:51.142Z,81.30
2018-07-15T21:28:20.927Z,79.00
2018-07-15T21:38:17.057Z,80.60
2018-07-15T21:40:46.717Z,82.00
2018-07-15T21:45:45.984Z,83.10
2018-07-15T21:48:15.796Z,83.60
2018-07-15T21:50:45.741Z,86.50
2018-07-15T21:53:15.311Z,85.20
2018-07-15T21:55:45.033Z,86.70
2018-07-15T21:58:14.670Z,84.10
2018-07-15T22:03:13.953Z,84.50
2018-07-15T22:05:43.403Z,83.60
2018-07-15T22:08:25.128Z,84.10
2018-07-15T22:10:54.803Z,85.60
2018-07-15T22:15:53.110Z,85.40
2018-07-15T22:18:22.786Z,86.40
2018-07-15T22:23:21.631Z,85.20
2018-07-15T22:30:49.409Z,88.30
2018-07-15T22:33:19.164Z,87.30
2018-07-15T22:35:48.746Z,90.30
2018-07-15T22:40:47.353Z,88.90
2018-07-15T22:43:16.789Z,89.60
2018-07-15T22:48:15.105Z,89.20
2018-07-15T22:50:45.073Z,87.60
2018-07-15T22:53:14.969Z,89.10
2018-07-15T23:00:42.978Z,90.10
2018-07-15T23:03:13.237Z,89.50
2018-07-15T23:05:57.166Z,89.30
2018-07-15T23:08:27.980Z,88.00
2018-07-15T23:10:57.738Z,89.50
2018-07-15T23:13:27.368Z,86.70
2018-07-15T23:15:56.866Z,85.80
2018-07-15T23:20:55.953Z,84.00
2018-07-15T23:33:21.296Z,88.40
2018-07-15T23:35:51.050Z,88.40
2018-07-15T23:38:20.558Z,86.20
2018-07-15T23:43:19.958Z,85.80
2018-07-15T23:50:47.629Z,89.70
2018-07-15T23:53:17.080Z,88.00
2018-07-15T23:55:46.920Z,88.30
